AFL1318 UUEE-ULMM
Flight info
| Callsign | AFL1318 |
|---|---|
| Flight time | 2h 7m |
| Altitude | 33000 |
| Route | RILPO3J RILPO DCT GIMDA N156 UPEMA T825 ADLIN/K0826F340 T747 MOVIT DCT PILAN T693 ASGOR ASGOR2L |
| Aircraft | A321/M-SDE3FGHIRWY/LB1 |
Departure
| Time | 2026-05-05 10:55 |
|---|---|
| Airport | Sheremetyevo International Airport (UUEE) |
Arrival
| Time | 2026-05-05 13:02 |
|---|---|
| Airport | Emperor Nicholas II Murmansk Airport (ULMM) |
| Time | Latitude | Longitude | Altitude | Speed | Heading |
|---|---|---|---|---|---|
| 2026-05-05 09:56 | 55.97493 | 37.39077 | 639 ft | 0 kts | 8° |
| 2026-05-05 10:40 | 55.97475 | 37.39073 | 641 ft | 4 kts | 10° |
| 2026-05-05 10:40 | 55.97452 | 37.39063 | 645 ft | 2 kts | 17° |
| 2026-05-05 10:41 | 55.97440 | 37.39044 | 642 ft | 4 kts | 79° |
| 2026-05-05 10:41 | 55.97434 | 37.39004 | 644 ft | 4 kts | 76° |
| 2026-05-05 10:41 | 55.97427 | 37.38957 | 645 ft | 4 kts | 75° |
| 2026-05-05 10:41 | 55.97423 | 37.38928 | 641 ft | 0 kts | 75° |
| 2026-05-05 10:44 | 55.97424 | 37.38936 | 641 ft | 3 kts | 75° |
| 2026-05-05 10:45 | 55.97437 | 37.39026 | 642 ft | 11 kts | 75° |
| 2026-05-05 10:45 | 55.97455 | 37.39143 | 639 ft | 9 kts | 75° |
| 2026-05-05 10:45 | 55.97469 | 37.39242 | 641 ft | 7 kts | 75° |
| 2026-05-05 10:45 | 55.97481 | 37.39323 | 642 ft | 7 kts | 75° |
| 2026-05-05 10:46 | 55.97500 | 37.39447 | 639 ft | 11 kts | 75° |
| 2026-05-05 10:46 | 55.97517 | 37.39566 | 645 ft | 9 kts | 75° |
| 2026-05-05 10:46 | 55.97532 | 37.39662 | 648 ft | 7 kts | 75° |
| 2026-05-05 10:46 | 55.97535 | 37.39759 | 641 ft | 7 kts | 119° |
| 2026-05-05 10:47 | 55.97497 | 37.39794 | 642 ft | 6 kts | 161° |
| 2026-05-05 10:47 | 55.97437 | 37.39830 | 641 ft | 12 kts | 162° |
| 2026-05-05 10:47 | 55.97364 | 37.39872 | 639 ft | 10 kts | 149° |
| 2026-05-05 10:47 | 55.97353 | 37.39968 | 640 ft | 8 kts | 76° |
| 2026-05-05 10:48 | 55.97366 | 37.40058 | 642 ft | 10 kts | 75° |
| 2026-05-05 10:48 | 55.97391 | 37.40223 | 641 ft | 17 kts | 75° |
| 2026-05-05 10:48 | 55.97421 | 37.40429 | 642 ft | 16 kts | 75° |
| 2026-05-05 10:48 | 55.97448 | 37.40609 | 642 ft | 14 kts | 75° |
| 2026-05-05 10:49 | 55.97472 | 37.40765 | 639 ft | 12 kts | 75° |
| 2026-05-05 10:49 | 55.97491 | 37.40895 | 642 ft | 10 kts | 75° |
| 2026-05-05 10:49 | 55.97515 | 37.41053 | 639 ft | 16 kts | 75° |
| 2026-05-05 10:49 | 55.97541 | 37.41227 | 640 ft | 14 kts | 75° |
| 2026-05-05 10:50 | 55.97564 | 37.41378 | 645 ft | 12 kts | 75° |
| 2026-05-05 10:50 | 55.97584 | 37.41510 | 641 ft | 12 kts | 75° |
| 2026-05-05 10:50 | 55.97612 | 37.41695 | 641 ft | 18 kts | 75° |
| 2026-05-05 10:50 | 55.97641 | 37.41892 | 642 ft | 16 kts | 75° |
| 2026-05-05 10:51 | 55.97667 | 37.42067 | 641 ft | 13 kts | 75° |
| 2026-05-05 10:51 | 55.97689 | 37.42216 | 639 ft | 11 kts | 75° |
| 2026-05-05 10:51 | 55.97708 | 37.42343 | 645 ft | 10 kts | 75° |
| 2026-05-05 10:51 | 55.97726 | 37.42463 | 642 ft | 12 kts | 75° |
| 2026-05-05 10:52 | 55.97748 | 37.42606 | 647 ft | 11 kts | 75° |
| 2026-05-05 10:52 | 55.97765 | 37.42722 | 645 ft | 8 kts | 77° |
| 2026-05-05 10:52 | 55.97743 | 37.42788 | 642 ft | 6 kts | 154° |
| 2026-05-05 10:52 | 55.97709 | 37.42807 | 642 ft | 5 kts | 163° |
| 2026-05-05 10:53 | 55.97657 | 37.42833 | 638 ft | 9 kts | 165° |
| 2026-05-05 10:53 | 55.97606 | 37.42831 | 645 ft | 6 kts | 229° |
| 2026-05-05 10:53 | 55.97597 | 37.42787 | 641 ft | 0 kts | 255° |
| 2026-05-05 10:54 | 55.97594 | 37.42763 | 639 ft | 9 kts | 255° |
| 2026-05-05 10:54 | 55.97518 | 37.42257 | 641 ft | 77 kts | 255° |
| 2026-05-05 10:54 | 55.97329 | 37.40994 | 643 ft | 130 kts | 254° |
| 2026-05-05 10:54 | 55.97048 | 37.39251 | 852 ft | 153 kts | 256° |
| 2026-05-05 10:55 | 55.96703 | 37.37478 | 1493 ft | 151 kts | 241° |
| 2026-05-05 10:55 | 55.96125 | 37.35908 | 2196 ft | 152 kts | 237° |
| 2026-05-05 10:55 | 55.95522 | 37.34376 | 2754 ft | 150 kts | 236° |
| 2026-05-05 10:55 | 55.94921 | 37.32859 | 3223 ft | 149 kts | 237° |
| 2026-05-05 10:56 | 55.94331 | 37.31369 | 3639 ft | 149 kts | 237° |
| 2026-05-05 10:56 | 55.93714 | 37.29805 | 3929 ft | 163 kts | 238° |
| 2026-05-05 10:56 | 55.93029 | 37.28058 | 4072 ft | 180 kts | 237° |
| 2026-05-05 10:56 | 55.92281 | 37.26139 | 4200 ft | 198 kts | 237° |
| 2026-05-05 10:57 | 55.91466 | 37.24043 | 4363 ft | 213 kts | 237° |
| 2026-05-05 10:57 | 55.90605 | 37.21828 | 4845 ft | 219 kts | 237° |
| 2026-05-05 10:57 | 55.89641 | 37.19744 | 5550 ft | 222 kts | 218° |
| 2026-05-05 10:57 | 55.88129 | 37.18902 | 6059 ft | 245 kts | 185° |
| 2026-05-05 10:58 | 55.86413 | 37.19890 | 6392 ft | 276 kts | 153° |
| 2026-05-05 10:58 | 55.84870 | 37.22047 | 6880 ft | 288 kts | 142° |
| 2026-05-05 10:58 | 55.83668 | 37.24923 | 6976 ft | 296 kts | 112° |
| 2026-05-05 10:58 | 55.83448 | 37.28555 | 7003 ft | 301 kts | 77° |
| 2026-05-05 10:59 | 55.84309 | 37.31973 | 7368 ft | 306 kts | 52° |
| 2026-05-05 10:59 | 55.85607 | 37.34987 | 7965 ft | 308 kts | 45° |
| 2026-05-05 10:59 | 55.86555 | 37.36879 | 8382 ft | 310 kts | 43° |
| 2026-05-05 10:59 | 55.88535 | 37.40659 | 8946 ft | 314 kts | 43° |
| 2026-05-05 11:00 | 55.89518 | 37.42562 | 8995 ft | 314 kts | 44° |
| 2026-05-05 11:00 | 55.90966 | 37.45465 | 9002 ft | 314 kts | 45° |
| 2026-05-05 11:00 | 55.92386 | 37.48429 | 9009 ft | 314 kts | 46° |
| 2026-05-05 11:00 | 55.93785 | 37.51430 | 8989 ft | 315 kts | 45° |
| 2026-05-05 11:01 | 55.95318 | 37.54192 | 9171 ft | 315 kts | 39° |
| 2026-05-05 11:01 | 55.96914 | 37.56880 | 9766 ft | 318 kts | 39° |
| 2026-05-05 11:01 | 55.98523 | 37.59591 | 9829 ft | 316 kts | 39° |
| 2026-05-05 11:01 | 56.00120 | 37.62282 | 9842 ft | 316 kts | 39° |
| 2026-05-05 11:02 | 56.01719 | 37.64977 | 9841 ft | 316 kts | 39° |
| 2026-05-05 11:02 | 56.03314 | 37.67671 | 9845 ft | 316 kts | 39° |
| 2026-05-05 11:02 | 56.04906 | 37.70366 | 9840 ft | 315 kts | 39° |
| 2026-05-05 11:02 | 56.06496 | 37.73063 | 9837 ft | 315 kts | 39° |
| 2026-05-05 11:03 | 56.08085 | 37.75758 | 9836 ft | 315 kts | 39° |
| 2026-05-05 11:03 | 56.09675 | 37.78464 | 9839 ft | 316 kts | 40° |
| 2026-05-05 11:03 | 56.11226 | 37.81261 | 9832 ft | 316 kts | 41° |
| 2026-05-05 11:03 | 56.12803 | 37.83998 | 9828 ft | 313 kts | 33° |
| 2026-05-05 11:04 | 56.14615 | 37.86085 | 9834 ft | 306 kts | 19° |
| 2026-05-05 11:04 | 56.16605 | 37.87319 | 9913 ft | 313 kts | 5° |
| 2026-05-05 11:04 | 56.18850 | 37.87779 | 10055 ft | 329 kts | 358° |
| 2026-05-05 11:04 | 56.21169 | 37.88087 | 10217 ft | 347 kts | 359° |
| 2026-05-05 11:05 | 56.23603 | 37.88432 | 10671 ft | 353 kts | 359° |
| 2026-05-05 11:05 | 56.26064 | 37.88806 | 11238 ft | 357 kts | 359° |
| 2026-05-05 11:05 | 56.28552 | 37.89193 | 11827 ft | 360 kts | 360° |
| 2026-05-05 11:05 | 56.31063 | 37.89559 | 12396 ft | 364 kts | 359° |
| 2026-05-05 11:06 | 56.33598 | 37.89901 | 12969 ft | 367 kts | 359° |
| 2026-05-05 11:06 | 56.36153 | 37.90231 | 13548 ft | 370 kts | 359° |
| 2026-05-05 11:06 | 56.38736 | 37.90562 | 14071 ft | 373 kts | 359° |
| 2026-05-05 11:06 | 56.41336 | 37.90897 | 14578 ft | 376 kts | 359° |
| 2026-05-05 11:07 | 56.43963 | 37.91239 | 15071 ft | 380 kts | 359° |
| 2026-05-05 11:07 | 56.46611 | 37.91597 | 15566 ft | 383 kts | 359° |
| 2026-05-05 11:07 | 56.49275 | 37.91963 | 16068 ft | 386 kts | 359° |
| 2026-05-05 11:07 | 56.51967 | 37.92333 | 16578 ft | 389 kts | 359° |
| 2026-05-05 11:08 | 56.54679 | 37.92704 | 17065 ft | 392 kts | 359° |
| 2026-05-05 11:08 | 56.57372 | 37.93071 | 17527 ft | 395 kts | 359° |
| 2026-05-05 11:08 | 56.60120 | 37.93449 | 17994 ft | 398 kts | 359° |
| 2026-05-05 11:08 | 56.62894 | 37.93828 | 18393 ft | 401 kts | 359° |
| 2026-05-05 11:09 | 56.65682 | 37.94487 | 18791 ft | 409 kts | 7° |
| 2026-05-05 11:09 | 56.68424 | 37.96075 | 19182 ft | 418 kts | 19° |
| 2026-05-05 11:09 | 56.71013 | 37.98611 | 19571 ft | 427 kts | 30° |
| 2026-05-05 11:09 | 56.73336 | 38.02053 | 19947 ft | 434 kts | 41° |
| 2026-05-05 11:10 | 56.75488 | 38.05938 | 20331 ft | 437 kts | 41° |
| 2026-05-05 11:10 | 56.77654 | 38.09843 | 20719 ft | 440 kts | 41° |
| 2026-05-05 11:10 | 56.79843 | 38.13776 | 21116 ft | 442 kts | 41° |
| 2026-05-05 11:10 | 56.82051 | 38.17702 | 21467 ft | 444 kts | 38° |
| 2026-05-05 11:11 | 56.84494 | 38.21111 | 21859 ft | 441 kts | 27° |
| 2026-05-05 11:11 | 56.87208 | 38.23671 | 22204 ft | 437 kts | 16° |
| 2026-05-05 11:11 | 56.90087 | 38.25337 | 22559 ft | 433 kts | 6° |
| 2026-05-05 11:11 | 56.93052 | 38.26089 | 22924 ft | 427 kts | 356° |
| 2026-05-05 11:12 | 56.96002 | 38.25971 | 23283 ft | 423 kts | 349° |
| 2026-05-05 11:12 | 56.98949 | 38.25592 | 23604 ft | 426 kts | 349° |
| 2026-05-05 11:12 | 57.01911 | 38.25214 | 23922 ft | 427 kts | 349° |
| 2026-05-05 11:12 | 57.04844 | 38.24842 | 24233 ft | 429 kts | 349° |
| 2026-05-05 11:13 | 57.07831 | 38.24464 | 24555 ft | 431 kts | 349° |
| 2026-05-05 11:13 | 57.10826 | 38.24089 | 24863 ft | 432 kts | 349° |
| 2026-05-05 11:13 | 57.13835 | 38.23711 | 25192 ft | 434 kts | 349° |
| 2026-05-05 11:13 | 57.16858 | 38.23328 | 25483 ft | 436 kts | 348° |
| 2026-05-05 11:14 | 57.19894 | 38.22943 | 25784 ft | 438 kts | 348° |
| 2026-05-05 11:14 | 57.22947 | 38.22551 | 26073 ft | 440 kts | 348° |
| 2026-05-05 11:14 | 57.26009 | 38.22159 | 26368 ft | 442 kts | 348° |
| 2026-05-05 11:14 | 57.29084 | 38.21770 | 26663 ft | 444 kts | 348° |
| 2026-05-05 11:15 | 57.32169 | 38.21379 | 26950 ft | 446 kts | 348° |
| 2026-05-05 11:15 | 57.35276 | 38.20990 | 27233 ft | 447 kts | 348° |
| 2026-05-05 11:15 | 57.38385 | 38.20601 | 27511 ft | 449 kts | 348° |
| 2026-05-05 11:15 | 57.41506 | 38.20200 | 27782 ft | 451 kts | 348° |
| 2026-05-05 11:16 | 57.44639 | 38.19793 | 28043 ft | 452 kts | 348° |
| 2026-05-05 11:16 | 57.47785 | 38.19384 | 28307 ft | 454 kts | 348° |
| 2026-05-05 11:16 | 57.50939 | 38.18976 | 28571 ft | 455 kts | 348° |
| 2026-05-05 11:16 | 57.54063 | 38.18574 | 28840 ft | 457 kts | 349° |
| 2026-05-05 11:17 | 57.57249 | 38.18167 | 29092 ft | 459 kts | 349° |
| 2026-05-05 11:17 | 57.60444 | 38.17755 | 29330 ft | 461 kts | 349° |
| 2026-05-05 11:17 | 57.63644 | 38.17342 | 29625 ft | 461 kts | 349° |
| 2026-05-05 11:17 | 57.66841 | 38.16924 | 29971 ft | 460 kts | 349° |
| 2026-05-05 11:18 | 57.70034 | 38.16509 | 30269 ft | 459 kts | 349° |
| 2026-05-05 11:18 | 57.73224 | 38.16091 | 30554 ft | 459 kts | 349° |
| 2026-05-05 11:18 | 57.76402 | 38.15673 | 30846 ft | 458 kts | 349° |
| 2026-05-05 11:18 | 57.79589 | 38.15252 | 31133 ft | 458 kts | 349° |
| 2026-05-05 11:19 | 57.82765 | 38.14832 | 31411 ft | 458 kts | 349° |
| 2026-05-05 11:19 | 57.85943 | 38.14414 | 31694 ft | 457 kts | 349° |
| 2026-05-05 11:19 | 57.89113 | 38.13994 | 31971 ft | 457 kts | 349° |
| 2026-05-05 11:19 | 57.92299 | 38.13803 | 32268 ft | 461 kts | 357° |
| 2026-05-05 11:20 | 57.95505 | 38.14273 | 32576 ft | 463 kts | 0° |
| 2026-05-05 11:20 | 57.98709 | 38.14813 | 32755 ft | 461 kts | 0° |
| 2026-05-05 11:20 | 58.01889 | 38.15351 | 32794 ft | 456 kts | 0° |
| 2026-05-05 11:21 | 58.08178 | 38.16416 | 32782 ft | 453 kts | 0° |
| 2026-05-05 11:21 | 58.14456 | 38.17464 | 32790 ft | 453 kts | 0° |
| 2026-05-05 11:22 | 58.20690 | 38.18503 | 32787 ft | 453 kts | 0° |
| 2026-05-05 11:22 | 58.26958 | 38.19556 | 32786 ft | 451 kts | 1° |
| 2026-05-05 11:23 | 58.33210 | 38.20614 | 32787 ft | 451 kts | 1° |
| 2026-05-05 11:23 | 58.39457 | 38.21694 | 32789 ft | 451 kts | 1° |
| 2026-05-05 11:24 | 58.45702 | 38.22771 | 32813 ft | 450 kts | 1° |
| 2026-05-05 11:24 | 58.51945 | 38.23817 | 32810 ft | 450 kts | 1° |
| 2026-05-05 11:25 | 58.58174 | 38.24875 | 32809 ft | 449 kts | 1° |
| 2026-05-05 11:25 | 58.64389 | 38.25945 | 32804 ft | 448 kts | 1° |
| 2026-05-05 11:26 | 58.70576 | 38.26176 | 32798 ft | 441 kts | 348° |
| 2026-05-05 11:26 | 58.76550 | 38.23841 | 32787 ft | 438 kts | 343° |
| 2026-05-05 11:27 | 58.82462 | 38.21336 | 32781 ft | 438 kts | 343° |
| 2026-05-05 11:27 | 58.88416 | 38.18825 | 32811 ft | 438 kts | 343° |
| 2026-05-05 11:28 | 58.94369 | 38.16304 | 32804 ft | 438 kts | 343° |
| 2026-05-05 11:28 | 59.00322 | 38.13761 | 32788 ft | 438 kts | 343° |
| 2026-05-05 11:29 | 59.06274 | 38.11197 | 32783 ft | 438 kts | 343° |
| 2026-05-05 11:29 | 59.12188 | 38.08648 | 32786 ft | 438 kts | 343° |
| 2026-05-05 11:30 | 59.18133 | 38.06090 | 32781 ft | 438 kts | 343° |
| 2026-05-05 11:30 | 59.24081 | 38.03516 | 32781 ft | 438 kts | 343° |
| 2026-05-05 11:31 | 59.30190 | 38.02428 | 32789 ft | 448 kts | 359° |
| 2026-05-05 11:31 | 59.36415 | 38.03613 | 32802 ft | 450 kts | 0° |
| 2026-05-05 11:32 | 59.42653 | 38.04815 | 32763 ft | 451 kts | 0° |
| 2026-05-05 11:32 | 59.48899 | 38.06012 | 32757 ft | 451 kts | 0° |
| 2026-05-05 11:33 | 59.55157 | 38.07220 | 32753 ft | 452 kts | 0° |
| 2026-05-05 11:33 | 59.61417 | 38.08438 | 32749 ft | 452 kts | 0° |
| 2026-05-05 11:34 | 59.67680 | 38.09675 | 32745 ft | 452 kts | 0° |
| 2026-05-05 11:34 | 59.73943 | 38.10910 | 32757 ft | 452 kts | 0° |
| 2026-05-05 11:35 | 59.80208 | 38.12142 | 32752 ft | 453 kts | 360° |
| 2026-05-05 11:35 | 59.86487 | 38.13374 | 32741 ft | 453 kts | 360° |
| 2026-05-05 11:36 | 59.92766 | 38.14619 | 32737 ft | 454 kts | 0° |
| 2026-05-05 11:36 | 59.99012 | 38.15874 | 32736 ft | 454 kts | 0° |
| 2026-05-05 11:37 | 60.05305 | 38.17139 | 32755 ft | 454 kts | 359° |
| 2026-05-05 11:37 | 60.11603 | 38.18390 | 32744 ft | 455 kts | 359° |
| 2026-05-05 11:38 | 60.17914 | 38.19652 | 32736 ft | 456 kts | 359° |
| 2026-05-05 11:38 | 60.24226 | 38.20922 | 32739 ft | 456 kts | 359° |
| 2026-05-05 11:39 | 60.30547 | 38.22198 | 32767 ft | 457 kts | 359° |
| 2026-05-05 11:39 | 60.36876 | 38.23495 | 32755 ft | 457 kts | 359° |
| 2026-05-05 11:40 | 60.43168 | 38.24777 | 32755 ft | 458 kts | 359° |
| 2026-05-05 11:40 | 60.49507 | 38.26076 | 32737 ft | 458 kts | 359° |
| 2026-05-05 11:41 | 60.55845 | 38.27385 | 32731 ft | 458 kts | 359° |
| 2026-05-05 11:41 | 60.62180 | 38.28686 | 32719 ft | 457 kts | 359° |
| 2026-05-05 11:42 | 60.68519 | 38.29980 | 32719 ft | 458 kts | 359° |
| 2026-05-05 11:42 | 60.74855 | 38.31282 | 32727 ft | 458 kts | 359° |
| 2026-05-05 11:43 | 60.81197 | 38.32614 | 32719 ft | 459 kts | 358° |
| 2026-05-05 11:43 | 60.87555 | 38.33954 | 32700 ft | 459 kts | 358° |
| 2026-05-05 11:44 | 60.93873 | 38.35282 | 32697 ft | 459 kts | 358° |
| 2026-05-05 11:44 | 61.00237 | 38.36617 | 32693 ft | 459 kts | 358° |
| 2026-05-05 11:45 | 61.06602 | 38.37964 | 32689 ft | 460 kts | 358° |
| 2026-05-05 11:45 | 61.12962 | 38.39319 | 32705 ft | 459 kts | 358° |
| 2026-05-05 11:46 | 61.19319 | 38.40677 | 32692 ft | 459 kts | 358° |
| 2026-05-05 11:46 | 61.25616 | 38.40724 | 32807 ft | 446 kts | 343° |
| 2026-05-05 11:46 | 61.28596 | 38.39519 | 33038 ft | 441 kts | 339° |
| 2026-05-05 11:47 | 61.31594 | 38.38134 | 33351 ft | 441 kts | 338° |
| 2026-05-05 11:47 | 61.34595 | 38.36754 | 33605 ft | 441 kts | 338° |
| 2026-05-05 11:47 | 61.37597 | 38.35373 | 33678 ft | 441 kts | 338° |
| 2026-05-05 11:48 | 61.46566 | 38.31189 | 33699 ft | 440 kts | 338° |
| 2026-05-05 11:48 | 61.52547 | 38.28385 | 33679 ft | 441 kts | 338° |
| 2026-05-05 11:49 | 61.58545 | 38.25578 | 33663 ft | 441 kts | 338° |
| 2026-05-05 11:49 | 61.64531 | 38.22760 | 33671 ft | 441 kts | 338° |
| 2026-05-05 11:50 | 61.70523 | 38.19929 | 33701 ft | 441 kts | 338° |
| 2026-05-05 11:50 | 61.76474 | 38.17097 | 33679 ft | 441 kts | 338° |
| 2026-05-05 11:51 | 61.82465 | 38.14231 | 33663 ft | 441 kts | 338° |
| 2026-05-05 11:51 | 61.88455 | 38.11348 | 33664 ft | 441 kts | 338° |
| 2026-05-05 11:52 | 61.94442 | 38.08468 | 33688 ft | 441 kts | 338° |
| 2026-05-05 11:52 | 61.99411 | 38.06042 | 33671 ft | 441 kts | 337° |
| 2026-05-05 11:53 | 62.05389 | 38.03061 | 33656 ft | 440 kts | 337° |
| 2026-05-05 11:53 | 62.12327 | 37.99582 | 33651 ft | 441 kts | 337° |
| 2026-05-05 11:54 | 62.17328 | 37.97072 | 33645 ft | 441 kts | 337° |
| 2026-05-05 11:54 | 62.23300 | 37.94077 | 33637 ft | 441 kts | 337° |
| 2026-05-05 11:55 | 62.29268 | 37.91073 | 33633 ft | 441 kts | 337° |
| 2026-05-05 11:55 | 62.35199 | 37.88072 | 33630 ft | 440 kts | 337° |
| 2026-05-05 11:56 | 62.41163 | 37.85031 | 33635 ft | 441 kts | 337° |
| 2026-05-05 11:56 | 62.47134 | 37.81971 | 33633 ft | 442 kts | 337° |
| 2026-05-05 11:57 | 62.53109 | 37.78885 | 33616 ft | 441 kts | 337° |
| 2026-05-05 11:57 | 62.59086 | 37.75803 | 33597 ft | 442 kts | 337° |
| 2026-05-05 11:58 | 62.65069 | 37.72684 | 33590 ft | 441 kts | 336° |
| 2026-05-05 11:58 | 62.70945 | 37.69055 | 33590 ft | 437 kts | 333° |
| 2026-05-05 11:59 | 62.76707 | 37.65111 | 33572 ft | 437 kts | 333° |
| 2026-05-05 11:59 | 62.82520 | 37.61171 | 33624 ft | 438 kts | 334° |
| 2026-05-05 12:00 | 62.88361 | 37.57317 | 33598 ft | 439 kts | 334° |
| 2026-05-05 12:00 | 62.94215 | 37.53475 | 33573 ft | 439 kts | 334° |
| 2026-05-05 12:01 | 63.00072 | 37.49616 | 33566 ft | 439 kts | 334° |
| 2026-05-05 12:01 | 63.05919 | 37.45706 | 33559 ft | 439 kts | 334° |
| 2026-05-05 12:02 | 63.11765 | 37.41781 | 33557 ft | 439 kts | 334° |
| 2026-05-05 12:02 | 63.17611 | 37.37854 | 33555 ft | 439 kts | 334° |
| 2026-05-05 12:03 | 63.23463 | 37.33908 | 33567 ft | 441 kts | 334° |
| 2026-05-05 12:03 | 63.29290 | 37.29940 | 33565 ft | 440 kts | 333° |
| 2026-05-05 12:04 | 63.35114 | 37.25780 | 33564 ft | 439 kts | 332° |
| 2026-05-05 12:04 | 63.40922 | 37.21527 | 33555 ft | 439 kts | 332° |
| 2026-05-05 12:05 | 63.46702 | 37.17118 | 33549 ft | 438 kts | 331° |
| 2026-05-05 12:05 | 63.52430 | 37.12537 | 33530 ft | 437 kts | 331° |
| 2026-05-05 12:06 | 63.58179 | 37.07944 | 33550 ft | 439 kts | 331° |
| 2026-05-05 12:06 | 63.63899 | 37.03408 | 33531 ft | 439 kts | 331° |
| 2026-05-05 12:07 | 63.69661 | 36.98826 | 33524 ft | 439 kts | 331° |
| 2026-05-05 12:07 | 63.75423 | 36.94223 | 33512 ft | 439 kts | 331° |
| 2026-05-05 12:08 | 63.81178 | 36.89594 | 33553 ft | 439 kts | 330° |
| 2026-05-05 12:08 | 63.86937 | 36.84941 | 33526 ft | 440 kts | 330° |
| 2026-05-05 12:09 | 63.92702 | 36.80243 | 33537 ft | 441 kts | 330° |
| 2026-05-05 12:09 | 63.98497 | 36.75530 | 33508 ft | 443 kts | 330° |
| 2026-05-05 12:10 | 64.04304 | 36.70811 | 33500 ft | 443 kts | 330° |
| 2026-05-05 12:10 | 64.10112 | 36.66062 | 33490 ft | 443 kts | 330° |
| 2026-05-05 12:11 | 64.15873 | 36.61310 | 33485 ft | 443 kts | 330° |
| 2026-05-05 12:11 | 64.21672 | 36.56520 | 33483 ft | 443 kts | 330° |
| 2026-05-05 12:12 | 64.27477 | 36.51706 | 33483 ft | 443 kts | 330° |
| 2026-05-05 12:12 | 64.33297 | 36.46821 | 33514 ft | 447 kts | 330° |
| 2026-05-05 12:13 | 64.39156 | 36.41897 | 33491 ft | 448 kts | 330° |
| 2026-05-05 12:13 | 64.45021 | 36.36981 | 33483 ft | 448 kts | 330° |
| 2026-05-05 12:14 | 64.50889 | 36.32029 | 33481 ft | 448 kts | 330° |
| 2026-05-05 12:14 | 64.56751 | 36.27049 | 33472 ft | 448 kts | 330° |
| 2026-05-05 12:15 | 64.62564 | 36.22062 | 33473 ft | 446 kts | 328° |
| 2026-05-05 12:15 | 64.68071 | 36.15755 | 33489 ft | 440 kts | 324° |
| 2026-05-05 12:16 | 64.73514 | 36.09233 | 33469 ft | 440 kts | 324° |
| 2026-05-05 12:16 | 64.78947 | 36.02661 | 33455 ft | 439 kts | 324° |
| 2026-05-05 12:17 | 64.84385 | 35.96052 | 33452 ft | 439 kts | 324° |
| 2026-05-05 12:17 | 64.89807 | 35.89394 | 33452 ft | 440 kts | 323° |
| 2026-05-05 12:18 | 64.95238 | 35.82688 | 33444 ft | 441 kts | 324° |
| 2026-05-05 12:18 | 65.00685 | 35.75930 | 33457 ft | 442 kts | 324° |
| 2026-05-05 12:19 | 65.06056 | 35.68867 | 33428 ft | 440 kts | 321° |
| 2026-05-05 12:19 | 65.11187 | 35.61016 | 33424 ft | 438 kts | 318° |
| 2026-05-05 12:20 | 65.16252 | 35.52955 | 33413 ft | 439 kts | 319° |
| 2026-05-05 12:20 | 65.21329 | 35.45032 | 33415 ft | 440 kts | 319° |
| 2026-05-05 12:21 | 65.26485 | 35.37165 | 33414 ft | 440 kts | 320° |
| 2026-05-05 12:21 | 65.31665 | 35.29301 | 33425 ft | 442 kts | 321° |
| 2026-05-05 12:22 | 65.36845 | 35.21355 | 33410 ft | 442 kts | 320° |
| 2026-05-05 12:22 | 65.42022 | 35.13351 | 33404 ft | 443 kts | 320° |
| 2026-05-05 12:23 | 65.47203 | 35.05289 | 33409 ft | 444 kts | 320° |
| 2026-05-05 12:23 | 65.52354 | 34.97252 | 33389 ft | 444 kts | 320° |
| 2026-05-05 12:24 | 65.57539 | 34.89112 | 33395 ft | 445 kts | 320° |
| 2026-05-05 12:24 | 65.62735 | 34.80918 | 33383 ft | 446 kts | 320° |
| 2026-05-05 12:25 | 65.67926 | 34.72695 | 33385 ft | 446 kts | 320° |
| 2026-05-05 12:25 | 65.73119 | 34.64420 | 33388 ft | 446 kts | 320° |
| 2026-05-05 12:26 | 65.78303 | 34.56124 | 33382 ft | 446 kts | 320° |
| 2026-05-05 12:26 | 65.83487 | 34.47779 | 33384 ft | 446 kts | 320° |
| 2026-05-05 12:27 | 65.88663 | 34.39426 | 33409 ft | 446 kts | 320° |
| 2026-05-05 12:27 | 65.93836 | 34.31028 | 33398 ft | 446 kts | 320° |
| 2026-05-05 12:28 | 65.99007 | 34.22576 | 33384 ft | 446 kts | 320° |
| 2026-05-05 12:28 | 66.04137 | 34.14140 | 33376 ft | 446 kts | 320° |
| 2026-05-05 12:29 | 66.09263 | 34.05516 | 33374 ft | 446 kts | 319° |
| 2026-05-05 12:29 | 66.14352 | 33.96762 | 33373 ft | 446 kts | 319° |
| 2026-05-05 12:30 | 66.19444 | 33.87973 | 33406 ft | 447 kts | 320° |
| 2026-05-05 12:30 | 66.24544 | 33.79165 | 33383 ft | 447 kts | 320° |
| 2026-05-05 12:31 | 66.29639 | 33.70327 | 33370 ft | 447 kts | 320° |
| 2026-05-05 12:31 | 66.34730 | 33.61457 | 33371 ft | 447 kts | 321° |
| 2026-05-05 12:32 | 66.40415 | 33.54706 | 33367 ft | 460 kts | 339° |
| 2026-05-05 12:32 | 66.46593 | 33.50443 | 33367 ft | 461 kts | 339° |
| 2026-05-05 12:33 | 66.52777 | 33.46128 | 33398 ft | 462 kts | 339° |
| 2026-05-05 12:33 | 66.58968 | 33.41769 | 33388 ft | 462 kts | 339° |
| 2026-05-05 12:34 | 66.65143 | 33.37373 | 33379 ft | 462 kts | 339° |
| 2026-05-05 12:34 | 66.71293 | 33.33003 | 33386 ft | 462 kts | 339° |
| 2026-05-05 12:35 | 66.77486 | 33.28593 | 33381 ft | 462 kts | 339° |
| 2026-05-05 12:35 | 66.83678 | 33.24143 | 33381 ft | 462 kts | 339° |
| 2026-05-05 12:36 | 66.89860 | 33.19675 | 33375 ft | 462 kts | 339° |
| 2026-05-05 12:36 | 66.96047 | 33.15179 | 33400 ft | 462 kts | 339° |
| 2026-05-05 12:37 | 67.02233 | 33.10657 | 33392 ft | 462 kts | 339° |
| 2026-05-05 12:37 | 67.08411 | 33.06113 | 33386 ft | 462 kts | 339° |
| 2026-05-05 12:38 | 67.14580 | 33.01557 | 33386 ft | 462 kts | 339° |
| 2026-05-05 12:38 | 67.20717 | 32.97011 | 33398 ft | 462 kts | 340° |
| 2026-05-05 12:39 | 67.26889 | 32.92405 | 33395 ft | 461 kts | 340° |
| 2026-05-05 12:39 | 67.29961 | 32.90103 | 33166 ft | 457 kts | 340° |
| 2026-05-05 12:39 | 67.33010 | 32.87819 | 32578 ft | 455 kts | 340° |
| 2026-05-05 12:40 | 67.36044 | 32.85544 | 32055 ft | 453 kts | 340° |
| 2026-05-05 12:40 | 67.39061 | 32.83274 | 31519 ft | 450 kts | 340° |
| 2026-05-05 12:40 | 67.42061 | 32.81002 | 31034 ft | 447 kts | 340° |
| 2026-05-05 12:40 | 67.45053 | 32.78954 | 30499 ft | 447 kts | 347° |
| 2026-05-05 12:41 | 67.48141 | 32.78262 | 30159 ft | 443 kts | 357° |
| 2026-05-05 12:41 | 67.51208 | 32.78188 | 29696 ft | 440 kts | 357° |
| 2026-05-05 12:41 | 67.54257 | 32.78087 | 29195 ft | 437 kts | 357° |
| 2026-05-05 12:41 | 67.57285 | 32.77967 | 28671 ft | 432 kts | 357° |
| 2026-05-05 12:42 | 67.60277 | 32.77838 | 28175 ft | 427 kts | 357° |
| 2026-05-05 12:42 | 67.63233 | 32.77705 | 27707 ft | 422 kts | 358° |
| 2026-05-05 12:42 | 67.66152 | 32.77583 | 27252 ft | 418 kts | 358° |
| 2026-05-05 12:42 | 67.69057 | 32.77474 | 26673 ft | 416 kts | 359° |
| 2026-05-05 12:43 | 67.71934 | 32.77368 | 26154 ft | 413 kts | 359° |
| 2026-05-05 12:43 | 67.74797 | 32.77263 | 25738 ft | 407 kts | 359° |
| 2026-05-05 12:43 | 67.77620 | 32.77155 | 25318 ft | 403 kts | 360° |
| 2026-05-05 12:43 | 67.80385 | 32.77042 | 24763 ft | 395 kts | 1° |
| 2026-05-05 12:44 | 67.83109 | 32.76927 | 24185 ft | 387 kts | 1° |
| 2026-05-05 12:44 | 67.85769 | 32.76818 | 23714 ft | 378 kts | 1° |
| 2026-05-05 12:44 | 67.88334 | 32.76713 | 23245 ft | 369 kts | 1° |
| 2026-05-05 12:44 | 67.90872 | 32.76612 | 22750 ft | 362 kts | 1° |
| 2026-05-05 12:45 | 67.93385 | 32.76513 | 22267 ft | 360 kts | 2° |
| 2026-05-05 12:45 | 67.95882 | 32.76422 | 21823 ft | 357 kts | 2° |
| 2026-05-05 12:45 | 67.98353 | 32.76332 | 21385 ft | 354 kts | 2° |
| 2026-05-05 12:45 | 68.00806 | 32.76263 | 20955 ft | 351 kts | 3° |
| 2026-05-05 12:46 | 68.03236 | 32.76224 | 20523 ft | 348 kts | 3° |
| 2026-05-05 12:46 | 68.05653 | 32.76193 | 20080 ft | 345 kts | 2° |
| 2026-05-05 12:46 | 68.08048 | 32.76158 | 19676 ft | 343 kts | 2° |
| 2026-05-05 12:46 | 68.10423 | 32.76121 | 19255 ft | 340 kts | 3° |
| 2026-05-05 12:47 | 68.11991 | 32.76100 | 18973 ft | 339 kts | 1° |
| 2026-05-05 12:47 | 68.14337 | 32.76077 | 18568 ft | 336 kts | 1° |
| 2026-05-05 12:47 | 68.16669 | 32.76056 | 18157 ft | 334 kts | 3° |
| 2026-05-05 12:47 | 68.18983 | 32.76031 | 17754 ft | 331 kts | 1° |
| 2026-05-05 12:48 | 68.21282 | 32.76004 | 17317 ft | 329 kts | 3° |
| 2026-05-05 12:48 | 68.23559 | 32.75970 | 16914 ft | 325 kts | 1° |
| 2026-05-05 12:48 | 68.25810 | 32.75926 | 16518 ft | 322 kts | 1° |
| 2026-05-05 12:48 | 68.28042 | 32.75886 | 16132 ft | 319 kts | 2° |
| 2026-05-05 12:49 | 68.30254 | 32.75857 | 15755 ft | 316 kts | 2° |
| 2026-05-05 12:49 | 68.32450 | 32.75826 | 15373 ft | 314 kts | 4° |
| 2026-05-05 12:49 | 68.34633 | 32.75789 | 15000 ft | 313 kts | 3° |
| 2026-05-05 12:49 | 68.36803 | 32.75755 | 14622 ft | 311 kts | 3° |
| 2026-05-05 12:50 | 68.38959 | 32.75722 | 14251 ft | 309 kts | 1° |
| 2026-05-05 12:50 | 68.41107 | 32.75684 | 13881 ft | 308 kts | 2° |
| 2026-05-05 12:50 | 68.43246 | 32.75675 | 13513 ft | 307 kts | 3° |
| 2026-05-05 12:50 | 68.45380 | 32.75823 | 13128 ft | 306 kts | 5° |
| 2026-05-05 12:51 | 68.47507 | 32.76067 | 12731 ft | 305 kts | 5° |
| 2026-05-05 12:51 | 68.49614 | 32.76338 | 12363 ft | 302 kts | 4° |
| 2026-05-05 12:51 | 68.51702 | 32.75916 | 11989 ft | 301 kts | 350° |
| 2026-05-05 12:51 | 68.53685 | 32.74099 | 11615 ft | 302 kts | 338° |
| 2026-05-05 12:52 | 68.55567 | 32.71624 | 11245 ft | 299 kts | 337° |
| 2026-05-05 12:52 | 68.57441 | 32.69179 | 10866 ft | 297 kts | 338° |
| 2026-05-05 12:52 | 68.59305 | 32.66757 | 10491 ft | 296 kts | 338° |
| 2026-05-05 12:52 | 68.61164 | 32.64335 | 10103 ft | 295 kts | 338° |
| 2026-05-05 12:53 | 68.63007 | 32.61924 | 9726 ft | 293 kts | 338° |
| 2026-05-05 12:53 | 68.64846 | 32.59512 | 9364 ft | 292 kts | 338° |
| 2026-05-05 12:53 | 68.66651 | 32.57133 | 9172 ft | 284 kts | 338° |
| 2026-05-05 12:53 | 68.68423 | 32.54797 | 8879 ft | 277 kts | 338° |
| 2026-05-05 12:54 | 68.71649 | 32.50527 | 8190 ft | 248 kts | 338° |
| 2026-05-05 12:54 | 68.73203 | 32.48478 | 7582 ft | 246 kts | 338° |
| 2026-05-05 12:54 | 68.74750 | 32.46439 | 7238 ft | 245 kts | 338° |
| 2026-05-05 12:55 | 68.76233 | 32.44475 | 7112 ft | 235 kts | 339° |
| 2026-05-05 12:55 | 68.77673 | 32.42534 | 6878 ft | 229 kts | 335° |
| 2026-05-05 12:55 | 68.79019 | 32.40133 | 6521 ft | 230 kts | 331° |
| 2026-05-05 12:55 | 68.80338 | 32.37655 | 6176 ft | 230 kts | 331° |
| 2026-05-05 12:56 | 68.81659 | 32.35172 | 5838 ft | 229 kts | 331° |
| 2026-05-05 12:56 | 68.82973 | 32.32699 | 5496 ft | 227 kts | 331° |
| 2026-05-05 12:56 | 68.84366 | 32.30924 | 4972 ft | 217 kts | 354° |
| 2026-05-05 12:56 | 68.85833 | 32.30897 | 4414 ft | 208 kts | 17° |
| 2026-05-05 12:57 | 68.87135 | 32.32425 | 3879 ft | 199 kts | 38° |
| 2026-05-05 12:57 | 68.88069 | 32.35004 | 3693 ft | 184 kts | 58° |
| 2026-05-05 12:57 | 68.88767 | 32.37858 | 3567 ft | 171 kts | 58° |
| 2026-05-05 12:57 | 68.89408 | 32.40481 | 3460 ft | 161 kts | 57° |
| 2026-05-05 12:58 | 68.90030 | 32.43033 | 3368 ft | 158 kts | 57° |
| 2026-05-05 12:58 | 68.90560 | 32.45690 | 3240 ft | 155 kts | 71° |
| 2026-05-05 12:58 | 68.90680 | 32.48535 | 3142 ft | 149 kts | 90° |
| 2026-05-05 12:58 | 68.90396 | 32.51306 | 3007 ft | 150 kts | 111° |
| 2026-05-05 12:59 | 68.89737 | 32.53553 | 2856 ft | 152 kts | 132° |
| 2026-05-05 12:59 | 68.88866 | 32.55211 | 2659 ft | 151 kts | 137° |
| 2026-05-05 12:59 | 68.87996 | 32.56844 | 2466 ft | 151 kts | 137° |
| 2026-05-05 13:00 | 68.86225 | 32.60158 | 2040 ft | 156 kts | 138° |
| 2026-05-05 13:00 | 68.85322 | 32.61844 | 1819 ft | 157 kts | 138° |
| 2026-05-05 13:01 | 68.82605 | 32.66899 | 1136 ft | 156 kts | 138° |
| 2026-05-05 13:01 | 68.81699 | 32.68565 | 914 ft | 155 kts | 136° |
| 2026-05-05 13:01 | 68.80821 | 32.70222 | 727 ft | 155 kts | 143° |
| 2026-05-05 13:01 | 68.79944 | 32.71881 | 509 ft | 151 kts | 141° |
| 2026-05-05 13:02 | 68.79083 | 32.73520 | 301 ft | 149 kts | 142° |
| 2026-05-05 13:02 | 68.78288 | 32.75000 | 275 ft | 114 kts | 145° |
| 2026-05-05 13:02 | 68.77878 | 32.75751 | 274 ft | 27 kts | 146° |
| 2026-05-05 13:02 | 68.77775 | 32.75935 | 273 ft | 13 kts | 150° |
| 2026-05-05 13:03 | 68.77702 | 32.76070 | 272 ft | 12 kts | 146° |
| 2026-05-05 13:03 | 68.77641 | 32.76182 | 273 ft | 9 kts | 146° |
| 2026-05-05 13:03 | 68.77590 | 32.76275 | 274 ft | 7 kts | 146° |
| 2026-05-05 13:03 | 68.77556 | 32.76319 | 275 ft | 4 kts | 149° |
| 2026-05-05 13:04 | 68.77546 | 32.76364 | 275 ft | 3 kts | 109° |
| 2026-05-05 13:04 | 68.77535 | 32.76389 | 275 ft | 1 kts | 182° |
| 2026-05-05 13:04 | 68.77534 | 32.76370 | 275 ft | 0 kts | 257° |
| 2026-05-05 13:04 | 68.77537 | 32.76362 | 279 ft | 1 kts | 293° |
| 2026-05-05 13:05 | 68.77553 | 32.76339 | 275 ft | 7 kts | 327° |
| 2026-05-05 13:05 | 68.77614 | 32.76231 | 273 ft | 12 kts | 327° |
| 2026-05-05 13:05 | 68.77682 | 32.76110 | 273 ft | 14 kts | 326° |
| 2026-05-05 13:05 | 68.77777 | 32.75934 | 273 ft | 16 kts | 326° |
| 2026-05-05 13:06 | 68.77868 | 32.75767 | 274 ft | 14 kts | 326° |
| 2026-05-05 13:06 | 68.77949 | 32.75619 | 274 ft | 14 kts | 326° |
| 2026-05-05 13:06 | 68.78027 | 32.75477 | 272 ft | 14 kts | 326° |
| 2026-05-05 13:06 | 68.78096 | 32.75349 | 272 ft | 10 kts | 326° |
| 2026-05-05 13:07 | 68.78155 | 32.75238 | 272 ft | 10 kts | 326° |
| 2026-05-05 13:07 | 68.78202 | 32.75150 | 274 ft | 6 kts | 326° |
| 2026-05-05 13:07 | 68.78232 | 32.75093 | 274 ft | 4 kts | 326° |
| 2026-05-05 13:07 | 68.78253 | 32.75052 | 274 ft | 3 kts | 326° |
| 2026-05-05 13:08 | 68.78275 | 32.75041 | 275 ft | 4 kts | 5° |
| 2026-05-05 13:08 | 68.78296 | 32.75083 | 275 ft | 4 kts | 50° |
| 2026-05-05 13:08 | 68.78307 | 32.75124 | 275 ft | 2 kts | 52° |
| 2026-05-05 13:08 | 68.78322 | 32.75179 | 277 ft | 6 kts | 55° |
| 2026-05-05 13:09 | 68.78328 | 32.75204 | 275 ft | 0 kts | 55° |
| 2026-05-05 13:11 | 68.78346 | 32.75276 | 275 ft | 16 kts | 56° |
| 2026-05-05 13:11 | 68.78392 | 32.75468 | 275 ft | 9 kts | 56° |
| 2026-05-05 13:11 | 68.78431 | 32.75602 | 275 ft | 5 kts | 21° |
| 2026-05-05 13:12 | 68.78471 | 32.75573 | 275 ft | 7 kts | 329° |
| 2026-05-05 13:12 | 68.78499 | 32.75594 | 275 ft | 7 kts | 51° |
| 2026-05-05 13:12 | 68.78512 | 32.75643 | 277 ft | 0 kts | 56° |